Terminal Aerodrome Forecast
Issued by NWS Duluth, MN

Home | Current Version | Previous Version | Text Only | Print | Product List | Glossary On
Versions: 1 2 3 4 5 6 7 8 9 10 11 12 13 14 15 16 17 18 19 20 21
000
FTUS43 KDLH 281733
TAFDLH
TAF
KDLH 281733Z 2818/2918 21016G25KT P6SM SCT020 BKN120
      TEMPO 2818/2819 BKN020 BKN120
     FM282200 22014G24KT P6SM VCTS BKN035CB
      TEMPO 2822/2901 -TSRA SCT025 BKN035CB
     FM290200 23014G24KT P6SM FEW050
     FM290600 25010KT P6SM SKC WS010/25040KT
     FM291400 26020G35KT P6SM SKC=

USA.gov is the U.S. government's official web portal to all federal, state and local government web resources and services.